Weather History for Watonga, OK

Change the Weather History Date:

Wednesday, February 27, 2013

  Actual Average Record
Temperature  
Mean Temperature 30 °F -  
Max Temperature 39 °F 58 °F 80 °F (1976)
Min Temperature 21 °F 33 °F 10 °F (1962)
Degree Days  
Heating Degree Days 35    
Moisture  
Dew Point 28 °F    
Average Humidity 86    
Maximum Humidity 100    
Minimum Humidity 66    
Precipitation  
Precipitation 0.00 in - - ()
Sea Level Pressure  
Sea Level Pressure 30.12 in    
Wind  
Wind Speed 10 mph (NW)    
Max Wind Speed 21 mph    
Max Gust Speed 29 mph    
Visibility 10 miles    
Events      
Averages and records for this station are not official NWS values.
T = Trace of Precipitation, MM = Missing Value Source: NWS Daily Summary

Daily Weather History Graph

Daily Weather History Graph

Search for Another Location

Airport:

Trip Planner

Search our weather history database for the weather conditions in past years. The results will help you decide how hot, cold, wet, or windy it might be!

Date:

Astronomy

Feb. 27, 2013 Rise Set
Actual Time 7:05 AM CST 6:27 PM CST
Civil Twilight 6:40 AM CST 6:52 PM CST
Nautical Twilight 6:10 AM CST 7:22 PM CST
Astronomical Twilight 5:41 AM CST 7:52 PM CST
Moon 8:43 PM CST (2/27) 7:47 AM CST (2/27)
Length of Visible Light 12h 12m
Length of Day
11h 21m
Waning Gibbous, 96% of the Moon is Illuminated
Feb 27
Waning Gibbous
Mar 4
Last Quarter
Mar 11
New
Mar 19
First Quarter
Mar 27
Full

Hourly Weather History & Observations

Time (CST) Temp. Windchill Dew Point Humidity Pressure Visibility Wind Dir Wind Speed Gust Speed Precip Events Conditions
12:15 AM 30.0 °F 23.2 °F 27.5 °F 90% 29.93 in 10.0 mi NNW 6.9 mph - N/A   Clear
12:35 AM 30.0 °F 23.2 °F 27.3 °F 90% 29.94 in 10.0 mi NNW 6.9 mph - N/A   Clear
12:55 AM 29.8 °F 23.0 °F 27.5 °F 91% 29.95 in 10.0 mi NNW 6.9 mph - N/A   Scattered Clouds
1:15 AM 29.8 °F 23.0 °F 27.5 °F 91% 29.97 in 10.0 mi WNW 6.9 mph - N/A   Mostly Cloudy
1:35 AM 29.3 °F 21.5 °F 27.7 °F 94% 29.96 in 10.0 mi NNW 8.1 mph - N/A   Overcast
1:55 AM 29.3 °F 24.3 °F 27.3 °F 92% 29.98 in 10.0 mi NNW 4.6 mph - N/A   Mostly Cloudy
2:15 AM 28.9 °F 23.9 °F 27.3 °F 94% 29.99 in 10.0 mi NNW 4.6 mph - N/A   Scattered Clouds
2:35 AM 28.4 °F 23.3 °F 27.1 °F 95% 29.99 in 10.0 mi NW 4.6 mph - N/A   Scattered Clouds
2:55 AM 28.0 °F 22.8 °F 27.5 °F 98% 29.99 in 10.0 mi NW 4.6 mph - N/A   Scattered Clouds
3:15 AM 27.3 °F 23.4 °F 27.3 °F 100% 29.99 in 10.0 mi NNW 3.5 mph - N/A   Clear
3:35 AM 27.1 °F 19.7 °F 26.6 °F 98% 29.99 in 10.0 mi NW 6.9 mph - N/A   Scattered Clouds
3:55 AM 25.3 °F 18.5 °F 25.3 °F 100% 29.99 in 10.0 mi NW 5.8 mph - N/A   Scattered Clouds
4:15 AM 24.8 °F 14.6 °F 24.6 °F 99% 29.99 in 10.0 mi WNW 10.4 mph - N/A   Clear
4:35 AM 24.8 °F 15.3 °F 23.7 °F 96% 30.00 in 10.0 mi WNW 9.2 mph - N/A   Clear
4:55 AM 25.0 °F 14.2 °F 24.1 °F 96% 30.01 in 10.0 mi NW 11.5 mph - N/A   Clear
5:15 AM 25.0 °F 14.2 °F 23.9 °F 96% 30.01 in 10.0 mi NW 11.5 mph - N/A   Clear
5:55 AM 24.8 °F 14.0 °F 23.5 °F 95% 30.03 in 10.0 mi NW 11.5 mph - N/A   Clear
6:15 AM 23.9 °F 14.2 °F 23.0 °F 96% 30.03 in 10.0 mi NW 9.2 mph - N/A   Clear
6:35 AM 23.7 °F 14.0 °F 22.8 °F 96% 30.03 in 10.0 mi NW 9.2 mph - N/A   Clear
6:55 AM 22.6 °F 11.3 °F 21.9 °F 97% 30.04 in 10.0 mi WNW 11.5 mph - N/A   Clear
7:15 AM 22.6 °F 13.4 °F 21.9 °F 97% 30.05 in 10.0 mi NW 8.1 mph - N/A   Clear
7:35 AM 22.6 °F 11.9 °F 21.6 °F 96% 30.06 in 10.0 mi WNW 10.4 mph - N/A   Clear
7:55 AM 21.6 °F 11.3 °F 20.5 °F 96% 30.06 in 10.0 mi WNW 9.2 mph - N/A   Clear
8:15 AM 23.5 °F 14.5 °F 22.1 °F 94% 30.08 in 10.0 mi WNW 8.1 mph - N/A   Clear
8:35 AM 24.1 °F 16.0 °F 22.3 °F 93% 30.08 in 10.0 mi WNW 6.9 mph - N/A   Clear
8:55 AM 26.1 °F 16.8 °F 23.0 °F 88% 30.09 in 10.0 mi WNW 9.2 mph - N/A   Clear
9:15 AM 27.3 °F 19.1 °F 23.4 °F 85% 30.10 in 10.0 mi WNW 8.1 mph - N/A   Clear
9:55 AM 30.7 °F 20.9 °F 25.3 °F 80% 30.11 in 10.0 mi NW 12.7 mph - N/A   Clear
10:15 AM 31.6 °F 20.7 °F 25.3 °F 78% 30.12 in 10.0 mi NW 16.1 mph - N/A   Clear
10:35 AM 32.0 °F 22.5 °F 25.9 °F 78% 30.13 in 10.0 mi NW 12.7 mph - N/A   Clear
10:55 AM 32.9 °F 24.7 °F 26.1 °F 76% 30.14 in 10.0 mi NNW 10.4 mph - N/A   Clear
11:15 AM 33.8 °F 25.8 °F 26.4 °F 74% 30.14 in 10.0 mi NNW 10.4 mph 17.3 mph N/A   Clear
11:35 AM 35.4 °F 25.3 °F 27.0 °F 71% 30.15 in 10.0 mi NNW 17.3 mph 23.0 mph N/A   Clear
11:55 AM 36.0 °F 26.0 °F 26.8 °F 69% 30.15 in 10.0 mi NW 17.3 mph 23.0 mph N/A   Clear
12:15 PM 36.5 °F 27.4 °F 27.1 °F 69% 30.16 in 10.0 mi NNW 15.0 mph 19.6 mph N/A   Clear
12:35 PM 37.0 °F 27.4 °F 27.5 °F 68% 30.17 in 10.0 mi NW 17.3 mph 20.7 mph N/A   Clear
12:55 PM 37.6 °F 28.4 °F 28.0 °F 68% 30.17 in 10.0 mi NNW 16.1 mph 21.9 mph N/A   Clear
1:15 PM 38.1 °F 28.8 °F 28.0 °F 67% 30.17 in 10.0 mi NNW 17.3 mph 23.0 mph N/A   Clear
1:35 PM 38.7 °F 29.1 °F 28.2 °F 66% 30.16 in 10.0 mi NNW 18.4 mph 25.3 mph N/A   Clear
1:55 PM 38.7 °F 30.1 °F 28.8 °F 68% 30.17 in 10.0 mi NW 15.0 mph 24.2 mph N/A   Clear
2:15 PM 38.8 °F 30.0 °F 28.8 °F 67% 30.16 in 10.0 mi NNW 16.1 mph 25.3 mph N/A   Clear
2:55 PM 39.2 °F 29.3 °F 29.1 °F 67% 30.16 in 10.0 mi NNW 20.7 mph 27.6 mph N/A   Clear
3:15 PM 38.8 °F 29.1 °F 30.7 °F 73% 30.16 in 10.0 mi NW 19.6 mph 27.6 mph N/A   Clear
3:35 PM 39.2 °F 29.3 °F 30.7 °F 72% 30.16 in 10.0 mi NW 20.7 mph 28.8 mph N/A   Clear
3:55 PM 39.4 °F 29.5 °F 30.7 °F 71% 30.17 in 10.0 mi NNW 20.7 mph 27.6 mph N/A   Clear
4:15 PM 39.4 °F 29.5 °F 30.7 °F 71% 30.17 in 10.0 mi NNW 20.7 mph 28.8 mph N/A   Clear
4:35 PM 39.4 °F 30.4 °F 30.9 °F 72% 30.18 in 10.0 mi NNW 17.3 mph 26.5 mph N/A   Clear
4:55 PM 39.0 °F 29.3 °F 31.5 °F 74% 30.18 in 10.0 mi NNW 19.6 mph 26.5 mph N/A   Clear
5:15 PM 38.8 °F 29.7 °F 30.9 °F 73% 30.18 in 10.0 mi NNW 17.3 mph 26.5 mph N/A   Clear
5:35 PM 38.3 °F 29.0 °F 31.1 °F 75% 30.18 in 10.0 mi NNW 17.3 mph 23.0 mph N/A   Clear
5:55 PM 37.8 °F 29.0 °F 31.6 °F 79% 30.19 in 10.0 mi NNW 15.0 mph 19.6 mph N/A   Clear
6:15 PM 37.2 °F 29.6 °F 31.8 °F 81% 30.19 in 10.0 mi NNW 11.5 mph 18.4 mph N/A   Clear
6:35 PM 36.5 °F 30.3 °F 31.8 °F 83% 30.20 in 10.0 mi NNW 8.1 mph - N/A   Clear
6:55 PM 35.2 °F 29.5 °F 31.6 °F 87% 30.21 in 10.0 mi NNW 6.9 mph - N/A   Clear
7:15 PM 35.1 °F 28.6 °F 31.5 °F 87% 30.21 in 10.0 mi NW 8.1 mph - N/A   Clear
7:35 PM 34.5 °F 27.9 °F 31.6 °F 89% 30.21 in 10.0 mi NW 8.1 mph - N/A   Clear
7:55 PM 33.8 °F 27.0 °F 31.6 °F 92% 30.22 in 10.0 mi NW 8.1 mph - N/A   Clear
8:15 PM 32.5 °F 25.5 °F 31.1 °F 94% 30.22 in 10.0 mi WNW 8.1 mph - N/A   Clear
8:35 PM 32.0 °F 26.4 °F 30.9 °F 96% 30.22 in 10.0 mi NW 5.8 mph - N/A   Clear
8:55 PM 32.9 °F 26.7 °F 31.1 °F 93% 30.22 in 10.0 mi NW 6.9 mph - N/A   Clear
9:15 PM 30.7 °F 24.9 °F 30.2 °F 98% 30.23 in 10.0 mi WNW 5.8 mph - N/A   Clear
9:35 PM 30.2 °F 25.4 °F 30.2 °F 100% 30.23 in 10.0 mi West 4.6 mph - N/A   Clear
9:55 PM 30.0 °F 24.1 °F 29.3 °F 97% 30.23 in 10.0 mi West 5.8 mph - N/A   Clear
10:15 PM 29.3 °F 23.2 °F 29.3 °F 100% 30.23 in 10.0 mi WNW 5.8 mph - N/A   Clear
10:35 PM 29.5 °F 22.5 °F 29.3 °F 99% 30.23 in 10.0 mi WNW 6.9 mph - N/A   Clear
10:55 PM 29.8 °F 22.2 °F 28.6 °F 95% 30.23 in 10.0 mi WNW 8.1 mph - N/A   Clear
11:15 PM 29.7 °F 22.8 °F 28.2 °F 94% 30.23 in 10.0 mi WNW 6.9 mph - N/A   Clear
11:35 PM 29.1 °F 21.3 °F 28.2 °F 96% 30.24 in 10.0 mi WNW 8.1 mph - N/A   Clear
11:55 PM 28.2 °F 19.5 °F 27.1 °F 96% 30.24 in 10.0 mi WNW 9.2 mph - N/A   Clear